createdAt,value
2019-01-09T00:03:15.553Z,2.40
2019-01-09T00:07:51.322Z,2.17
2019-01-09T00:12:27.065Z,1.20
2019-01-09T00:17:03.140Z,2.20
2019-01-09T00:21:38.894Z,1.90
2019-01-09T00:26:14.664Z,1.80
2019-01-09T00:30:50.413Z,4.00
2019-01-09T00:35:26.180Z,3.30
2019-01-09T00:40:01.961Z,2.03
2019-01-09T00:44:38.005Z,1.00
2019-01-09T00:49:13.733Z,0.53
2019-01-09T00:53:49.506Z,0.57
2019-01-09T00:58:25.250Z,0.70
2019-01-09T01:03:48.415Z,0.30
2019-01-09T01:09:17.320Z,0.57
2019-01-09T01:14:42.727Z,0.33
2019-01-09T01:19:48.027Z,0.53
2019-01-09T01:25:00.449Z,1.53
2019-01-09T01:30:32.061Z,0.50
2019-01-09T01:35:54.876Z,1.37
2019-01-09T01:41:13.936Z,0.50
2019-01-09T01:46:36.498Z,0.83
2019-01-09T01:51:48.386Z,0.77
2019-01-09T01:56:51.392Z,0.70
2019-01-09T02:02:32.385Z,0.20
2019-01-09T02:07:49.960Z,0.77
2019-01-09T02:13:08.188Z,0.70
2019-01-09T02:18:05.213Z,0.63
2019-01-09T02:23:17.043Z,0.50
2019-01-09T02:28:29.199Z,1.17
2019-01-09T02:33:04.943Z,0.70
2019-01-09T02:37:40.692Z,0.63
2019-01-09T02:42:16.456Z,1.03
2019-01-09T02:46:52.229Z,0.50
2019-01-09T02:51:27.969Z,2.00
2019-01-09T02:56:03.742Z,0.40
2019-01-09T03:00:39.604Z,0.70
2019-01-09T03:05:15.361Z,1.13
2019-01-09T03:09:51.118Z,0.77
2019-01-09T03:14:26.915Z,0.43
2019-01-09T03:19:02.667Z,1.37
2019-01-09T03:23:38.492Z,0.60
2019-01-09T03:28:14.246Z,0.93
2019-01-09T03:32:50.009Z,2.77
2019-01-09T03:37:27.057Z,1.23
2019-01-09T03:42:02.808Z,1.32
2019-01-09T03:46:38.580Z,0.73
2019-01-09T03:51:14.350Z,1.03
2019-01-09T03:55:50.090Z,0.83
2019-01-09T04:00:25.835Z,0.80
2019-01-09T04:05:01.780Z,2.57
2019-01-09T04:09:37.718Z,2.43
2019-01-09T04:14:13.436Z,2.27
2019-01-09T04:18:49.192Z,0.63
2019-01-09T04:23:26.057Z,1.97
2019-01-09T04:28:01.817Z,0.40
2019-01-09T04:32:37.561Z,0.93
2019-01-09T04:37:13.337Z,1.07
2019-01-09T04:41:49.081Z,0.53
2019-01-09T04:46:25.315Z,1.33
2019-01-09T04:51:01.079Z,0.50
2019-01-09T04:55:36.843Z,1.17
2019-01-09T05:00:12.585Z,1.03
2019-01-09T05:04:49.466Z,0.60
2019-01-09T05:09:25.650Z,4.07
2019-01-09T05:14:01.409Z,0.73
2019-01-09T05:18:37.140Z,0.30
2019-01-09T05:23:12.900Z,1.20
2019-01-09T05:27:48.643Z,0.30
2019-01-09T05:32:24.422Z,0.60
2019-01-09T05:37:09.198Z,0.53
2019-01-09T05:41:37.620Z,2.53
2019-01-09T05:46:13.361Z,0.30
2019-01-09T05:50:49.178Z,0.37
2019-01-09T05:55:24.956Z,2.00
2019-01-09T06:00:00.789Z,0.40
2019-01-09T06:04:36.524Z,0.30
2019-01-09T06:09:12.288Z,1.20
2019-01-09T06:13:48.041Z,0.53
2019-01-09T06:18:23.805Z,0.43
2019-01-09T06:22:59.540Z,4.00
2019-01-09T06:27:35.312Z,6.00
2019-01-09T06:32:11.045Z,1.67
2019-01-09T06:36:46.848Z,1.53
2019-01-09T06:41:22.661Z,0.97
2019-01-09T06:45:58.429Z,0.27
2019-01-09T06:50:34.173Z,0.37
2019-01-09T06:55:09.953Z,0.20
2019-01-09T06:59:45.777Z,1.47
2019-01-09T07:04:21.543Z,13.70
2019-01-09T07:08:57.281Z,4.63
2019-01-09T07:13:33.044Z,1.40
2019-01-09T07:18:08.781Z,4.10
2019-01-09T07:22:44.556Z,9.77
2019-01-09T07:27:20.304Z,44.83
2019-01-09T07:31:56.123Z,45.20
2019-01-09T07:36:31.863Z,3.00
2019-01-09T07:41:07.624Z,1.60
2019-01-09T07:45:43.372Z,1.63
2019-01-09T07:50:19.161Z,0.77
2019-01-09T07:54:55.205Z,0.50
2019-01-09T07:59:30.980Z,0.47
2019-01-09T08:04:06.744Z,2.60
2019-01-09T08:08:42.529Z,2.60
2019-01-09T08:13:18.270Z,0.40
2019-01-09T08:17:54.035Z,2.73
2019-01-09T08:22:29.778Z,0.97
2019-01-09T08:27:05.533Z,0.73
2019-01-09T08:31:41.279Z,4.53
2019-01-09T08:36:17.060Z,1.67
2019-01-09T08:40:53.376Z,1.33
2019-01-09T08:45:29.139Z,0.80
2019-01-09T08:50:05.817Z,3.20
2019-01-09T08:54:41.581Z,1.07
2019-01-09T08:59:17.325Z,0.33
2019-01-09T09:03:53.097Z,2.93
2019-01-09T09:08:30.160Z,5.00
2019-01-09T09:13:05.933Z,2.00
2019-01-09T09:17:41.672Z,2.77
2019-01-09T09:22:17.428Z,3.10
2019-01-09T09:26:53.244Z,3.97
2019-01-09T09:31:29.092Z,2.57
2019-01-09T09:36:05.477Z,6.90
2019-01-09T09:40:41.232Z,4.50
2019-01-09T09:45:16.969Z,2.67
2019-01-09T09:49:52.741Z,1.87
2019-01-09T09:54:28.486Z,1.43
2019-01-09T09:59:04.249Z,1.63
2019-01-09T10:03:39.997Z,1.53
2019-01-09T10:08:15.760Z,1.27
2019-01-09T10:12:51.546Z,1.10
2019-01-09T10:17:27.312Z,3.90
2019-01-09T10:22:03.066Z,8.63
2019-01-09T10:26:38.813Z,6.57
2019-01-09T10:31:14.564Z,6.30
2019-01-09T10:35:50.333Z,3.47
2019-01-09T10:40:26.077Z,4.57
2019-01-09T10:45:01.845Z,2.73
2019-01-09T10:49:37.597Z,8.40
2019-01-09T10:54:13.533Z,4.60
2019-01-09T10:58:49.281Z,1.93
2019-01-09T11:03:25.041Z,1.23
2019-01-09T11:08:00.801Z,4.67
2019-01-09T11:12:36.560Z,2.60
2019-01-09T11:17:12.342Z,4.53
2019-01-09T11:21:48.100Z,6.90
2019-01-09T11:26:23.849Z,3.57
2019-01-09T11:30:59.612Z,2.53
2019-01-09T11:35:35.353Z,1.77
2019-01-09T11:40:12.712Z,0.97
2019-01-09T11:44:48.464Z,4.13
2019-01-09T11:49:24.252Z,1.20
2019-01-09T11:54:00.001Z,4.50
2019-01-09T11:58:35.756Z,2.03
2019-01-09T12:03:13.385Z,6.83
2019-01-09T12:07:49.154Z,2.63
2019-01-09T12:12:24.885Z,1.63
2019-01-09T12:17:00.653Z,6.10
2019-01-09T12:21:36.445Z,8.57
2019-01-09T12:26:12.218Z,4.50
2019-01-09T12:30:47.967Z,1.93
2019-01-09T12:35:23.712Z,1.57
2019-01-09T12:39:59.464Z,3.30
2019-01-09T12:44:35.244Z,2.07
2019-01-09T12:49:10.992Z,6.07
2019-01-09T12:53:48.430Z,5.60
2019-01-09T12:58:24.389Z,2.73
2019-01-09T13:03:00.158Z,1.70
2019-01-09T13:07:35.896Z,2.70
2019-01-09T13:12:11.653Z,2.53
2019-01-09T13:16:48.050Z,8.40
2019-01-09T13:21:24.040Z,4.17
2019-01-09T13:26:00.105Z,4.27
2019-01-09T13:30:35.873Z,2.97
2019-01-09T13:35:11.613Z,1.23
2019-01-09T13:39:47.379Z,6.33
2019-01-09T13:44:23.119Z,3.70
2019-01-09T13:48:58.878Z,2.10
2019-01-09T13:53:34.617Z,2.60
2019-01-09T13:58:11.426Z,2.93
2019-01-09T14:02:47.168Z,2.20
2019-01-09T14:07:22.949Z,2.87
2019-01-09T14:11:58.760Z,2.07
2019-01-09T14:16:34.591Z,2.03
2019-01-09T14:21:10.366Z,2.30
2019-01-09T14:25:46.128Z,1.73
2019-01-09T14:30:24.599Z,3.67
2019-01-09T14:35:00.385Z,3.23
2019-01-09T14:39:36.128Z,5.67
2019-01-09T14:44:11.984Z,11.73
2019-01-09T14:48:47.729Z,8.17
2019-01-09T14:53:23.512Z,8.40
2019-01-09T14:57:59.557Z,8.00
2019-01-09T15:02:35.321Z,3.90
2019-01-09T15:07:11.069Z,5.20
2019-01-09T15:11:46.829Z,6.63
2019-01-09T15:16:22.572Z,5.43
2019-01-09T15:20:58.349Z,5.63
2019-01-09T15:25:34.100Z,3.80
2019-01-09T15:30:14.436Z,3.07
2019-01-09T15:34:50.219Z,2.53
2019-01-09T15:39:25.981Z,7.60
2019-01-09T15:44:01.717Z,2.17
2019-01-09T15:48:37.480Z,8.87
2019-01-09T15:53:13.226Z,3.20
2019-01-09T15:57:49.848Z,6.03
2019-01-09T16:02:25.588Z,8.23
2019-01-09T16:07:01.353Z,5.07
2019-01-09T16:11:37.097Z,4.80
2019-01-09T16:16:12.949Z,11.07
2019-01-09T16:20:48.705Z,11.70
2019-01-09T16:25:24.466Z,6.10
2019-01-09T16:30:00.300Z,5.50
2019-01-09T16:34:36.287Z,6.07
2019-01-09T16:39:12.061Z,6.83
2019-01-09T16:43:47.829Z,8.57
2019-01-09T16:48:23.573Z,5.60
2019-01-09T16:52:59.333Z,6.90
2019-01-09T16:57:35.554Z,7.87
2019-01-09T17:02:11.384Z,12.60
2019-01-09T17:06:47.141Z,10.17
2019-01-09T17:11:23.032Z,12.23
2019-01-09T17:15:58.860Z,11.40
2019-01-09T17:20:34.631Z,8.50
2019-01-09T17:25:10.781Z,8.73
2019-01-09T17:29:46.641Z,16.40
2019-01-09T17:34:22.390Z,7.43
2019-01-09T17:38:58.240Z,10.57
2019-01-09T17:43:34.077Z,7.57
2019-01-09T17:48:09.853Z,10.80
2019-01-09T17:52:46.183Z,11.30
2019-01-09T17:57:21.941Z,14.00
2019-01-09T18:02:01.226Z,10.43
2019-01-09T18:06:36.999Z,13.00
2019-01-09T18:11:12.757Z,18.60
2019-01-09T18:15:48.834Z,15.03
2019-01-09T18:20:24.692Z,10.83
2019-01-09T18:25:00.632Z,11.07
2019-01-09T18:29:36.381Z,10.20
2019-01-09T18:34:20.932Z,13.03
2019-01-09T18:39:31.330Z,11.17
2019-01-09T18:45:04.602Z,9.53
2019-01-09T18:49:49.401Z,7.70
2019-01-09T18:54:25.253Z,10.87
2019-01-09T18:59:01.603Z,8.70
2019-01-09T19:03:37.397Z,6.03
2019-01-09T19:08:13.513Z,10.07
2019-01-09T19:12:50.605Z,9.03
2019-01-09T19:17:26.826Z,5.37
2019-01-09T19:22:02.590Z,5.90
2019-01-09T19:26:38.338Z,8.73
2019-01-09T19:31:14.310Z,4.73
2019-01-09T19:35:50.073Z,6.90
2019-01-09T19:40:25.888Z,8.83
2019-01-09T19:45:01.695Z,7.47
2019-01-09T19:49:37.607Z,4.80
2019-01-09T19:54:13.652Z,5.37
2019-01-09T19:58:49.429Z,3.60
2019-01-09T20:03:25.178Z,4.73
2019-01-09T20:08:00.946Z,4.37
2019-01-09T20:12:36.717Z,7.30
2019-01-09T20:17:12.554Z,6.57
2019-01-09T20:21:48.304Z,8.37
2019-01-09T20:26:24.124Z,7.77
2019-01-09T20:30:59.874Z,9.00
2019-01-09T20:35:35.681Z,5.60
2019-01-09T20:40:12.603Z,5.77
2019-01-09T20:44:48.477Z,5.33
2019-01-09T20:49:24.298Z,11.93
2019-01-09T20:54:00.142Z,6.50
2019-01-09T20:58:35.962Z,5.50
2019-01-09T21:03:13.745Z,6.53
2019-01-09T21:07:49.922Z,4.73
2019-01-09T21:12:26.076Z,5.47
2019-01-09T21:17:01.845Z,7.60
2019-01-09T21:21:37.669Z,11.00
2019-01-09T21:26:13.416Z,25.03
2019-01-09T21:30:49.186Z,28.53
2019-01-09T21:35:24.966Z,11.57
2019-01-09T21:40:00.733Z,5.90
2019-01-09T21:44:36.476Z,6.00
2019-01-09T21:49:12.242Z,8.27
2019-01-09T21:53:48.297Z,6.30
2019-01-09T21:58:24.128Z,4.57
2019-01-09T22:02:59.907Z,5.80
2019-01-09T22:07:35.668Z,4.10
2019-01-09T22:12:12.047Z,5.77
2019-01-09T22:16:47.825Z,4.73
2019-01-09T22:21:23.563Z,8.63
2019-01-09T22:25:59.325Z,8.17
2019-01-09T22:30:35.568Z,4.80
2019-01-09T22:35:11.637Z,6.33
2019-01-09T22:39:47.484Z,6.03
2019-01-09T22:44:23.293Z,6.43
2019-01-09T22:48:59.435Z,5.03
2019-01-09T22:53:35.196Z,4.90
2019-01-09T22:58:10.961Z,5.50
2019-01-09T23:02:47.121Z,5.90
2019-01-09T23:07:22.861Z,4.37
2019-01-09T23:11:58.616Z,4.80
2019-01-09T23:16:34.361Z,4.07
2019-01-09T23:21:10.145Z,5.23
2019-01-09T23:25:47.365Z,4.87
2019-01-09T23:30:23.117Z,6.73
2019-01-09T23:34:58.861Z,8.33
2019-01-09T23:39:34.824Z,5.43
2019-01-09T23:44:10.871Z,7.37
2019-01-09T23:48:46.647Z,5.50
2019-01-09T23:53:22.435Z,6.87
2019-01-09T23:57:58.210Z,6.20
